createdAt,value
2015-09-24T00:00:07.935Z,99232
2015-09-24T00:00:26.294Z,99235
2015-09-24T00:00:44.654Z,99235
2015-09-24T00:01:03.013Z,99235
2015-09-24T00:01:21.376Z,99235
2015-09-24T00:01:39.735Z,99226
2015-09-24T00:01:58.079Z,99235
2015-09-24T00:02:16.441Z,99232
2015-09-24T00:02:34.800Z,99238
2015-09-24T00:02:53.285Z,99235
2015-09-24T00:03:11.646Z,99238
2015-09-24T00:03:30.006Z,99235
2015-09-24T00:03:48.224Z,99232
2015-09-24T00:04:06.568Z,99243
2015-09-24T00:04:24.930Z,99238
2015-09-24T00:04:43.290Z,99229
2015-09-24T00:05:00.993Z,99238
2015-09-24T00:05:19.354Z,99235
2015-09-24T00:05:37.714Z,99235
2015-09-24T00:05:56.073Z,99238
2015-09-24T00:06:14.435Z,99238
2015-09-24T00:06:32.779Z,99238
2015-09-24T00:06:51.139Z,99243
2015-09-24T00:07:09.642Z,99240
2015-09-24T00:07:27.985Z,99235
2015-09-24T00:07:46.345Z,99235
2015-09-24T00:08:04.704Z,99226
2015-09-24T00:08:23.066Z,99235
2015-09-24T00:08:41.410Z,99235
2015-09-24T00:08:59.785Z,99238
2015-09-24T00:09:18.132Z,99232
2015-09-24T00:09:36.507Z,99235
2015-09-24T00:09:54.866Z,99232
2015-09-24T00:10:13.229Z,99238
2015-09-24T00:10:31.588Z,99240
2015-09-24T00:10:49.932Z,99229
2015-09-24T00:11:08.291Z,99240
2015-09-24T00:11:26.653Z,99243
2015-09-24T00:11:44.996Z,99235
2015-09-24T00:12:03.356Z,99243
2015-09-24T00:12:21.843Z,99238
2015-09-24T00:12:40.202Z,99243
2015-09-24T00:12:58.562Z,99240
2015-09-24T00:13:16.923Z,99235
2015-09-24T00:13:35.267Z,99235
2015-09-24T00:13:53.626Z,99235
2015-09-24T00:14:11.986Z,99232
2015-09-24T00:14:30.348Z,99232
2015-09-24T00:14:48.707Z,99255
2015-09-24T00:15:07.051Z,99232
2015-09-24T00:15:25.413Z,99240
2015-09-24T00:15:43.772Z,99223
2015-09-24T00:16:02.131Z,99232
2015-09-24T00:16:20.479Z,99232
2015-09-24T00:16:38.838Z,99240
2015-09-24T00:16:57.198Z,99243
2015-09-24T00:17:15.557Z,99235
2015-09-24T00:17:33.920Z,99240
2015-09-24T00:17:52.279Z,99238
2015-09-24T00:18:10.623Z,99232
2015-09-24T00:18:28.328Z,99235
2015-09-24T00:18:46.703Z,99240
2015-09-24T00:19:04.390Z,99235
2015-09-24T00:19:22.753Z,99232
2015-09-24T00:19:41.112Z,99240
2015-09-24T00:19:59.471Z,99229
2015-09-24T00:20:17.831Z,99238
2015-09-24T00:20:36.192Z,99229
2015-09-24T00:20:54.552Z,99229
2015-09-24T00:21:12.911Z,99232
2015-09-24T00:21:31.258Z,99240
2015-09-24T00:21:49.617Z,99232
2015-09-24T00:22:07.976Z,99229
2015-09-24T00:22:26.339Z,99240
2015-09-24T00:22:44.683Z,99238
2015-09-24T00:23:03.042Z,99232
2015-09-24T00:23:21.401Z,99238
2015-09-24T00:23:39.764Z,99240
2015-09-24T00:23:58.123Z,99232
2015-09-24T00:24:16.467Z,99235
2015-09-24T00:24:34.829Z,99238
2015-09-24T00:24:53.189Z,99235
2015-09-24T00:25:11.548Z,99240
2015-09-24T00:25:29.909Z,99238
2015-09-24T00:25:48.269Z,99240
2015-09-24T00:26:06.612Z,99240
2015-09-24T00:26:24.987Z,99232
2015-09-24T00:26:43.334Z,99235
2015-09-24T00:27:01.694Z,99238
2015-09-24T00:27:20.053Z,99229
2015-09-24T00:27:38.415Z,99240
2015-09-24T00:27:56.759Z,99235
2015-09-24T00:28:15.118Z,99238
2015-09-24T00:28:33.480Z,99232
2015-09-24T00:28:51.839Z,99246
2015-09-24T00:29:10.183Z,99252
2015-09-24T00:29:28.542Z,99238
2015-09-24T00:29:46.905Z,99235
2015-09-24T00:30:05.264Z,99243
2015-09-24T00:30:23.608Z,99235
2015-09-24T00:30:41.314Z,99235
2015-09-24T00:30:59.673Z,99238
2015-09-24T00:31:17.392Z,99235
2015-09-24T00:31:35.754Z,99235
2015-09-24T00:31:54.114Z,99235
2015-09-24T00:32:12.473Z,99240
2015-09-24T00:32:30.833Z,99232
2015-09-24T00:32:49.179Z,99240
2015-09-24T00:33:07.539Z,99240
2015-09-24T00:33:25.898Z,99235
2015-09-24T00:33:43.603Z,99235
2015-09-24T00:34:01.963Z,99235
2015-09-24T00:34:20.322Z,99240
2015-09-24T00:34:38.716Z,99235
2015-09-24T00:34:57.028Z,99238
2015-09-24T00:35:15.387Z,99235
2015-09-24T00:35:33.747Z,99238
2015-09-24T00:35:52.109Z,99235
2015-09-24T00:36:10.469Z,99246
2015-09-24T00:36:28.828Z,99235
2015-09-24T00:36:47.189Z,99235
2015-09-24T00:37:05.533Z,99240
2015-09-24T00:37:23.892Z,99235
2015-09-24T00:37:42.255Z,99238
2015-09-24T00:38:00.614Z,99243
2015-09-24T00:38:18.958Z,99243
2015-09-24T00:38:37.317Z,99240
2015-09-24T00:38:55.680Z,99240
2015-09-24T00:39:14.039Z,99238
2015-09-24T00:39:32.398Z,99240
2015-09-24T00:39:50.761Z,99243
2015-09-24T00:40:08.464Z,99249
2015-09-24T00:40:26.808Z,99240
2015-09-24T00:40:45.170Z,99246
2015-09-24T00:41:03.529Z,99252
2015-09-24T00:41:22.014Z,99238
2015-09-24T00:41:40.373Z,99232
2015-09-24T00:41:58.078Z,99240
2015-09-24T00:42:16.438Z,99238
2015-09-24T00:42:34.797Z,99243
2015-09-24T00:42:53.159Z,99238
2015-09-24T00:43:11.503Z,99246
2015-09-24T00:43:29.863Z,99235
2015-09-24T00:43:48.225Z,99249
2015-09-24T00:44:06.584Z,99243
2015-09-24T00:44:24.944Z,99240
2015-09-24T00:44:42.647Z,99243
2015-09-24T00:45:01.008Z,99238
2015-09-24T00:45:18.711Z,99240
2015-09-24T00:45:37.071Z,99238
2015-09-24T00:45:55.417Z,99238
2015-09-24T00:46:13.777Z,99246
2015-09-24T00:46:32.136Z,99255
2015-09-24T00:46:50.499Z,99246
2015-09-24T00:47:08.858Z,99240
2015-09-24T00:47:27.202Z,99246
2015-09-24T00:47:45.561Z,99246
2015-09-24T00:48:03.923Z,99246
2015-09-24T00:48:22.283Z,99243
2015-09-24T00:48:40.642Z,99252
2015-09-24T00:48:59.004Z,99240
2015-09-24T00:49:17.347Z,99246
2015-09-24T00:49:35.050Z,99238
2015-09-24T00:49:53.413Z,99249
2015-09-24T00:50:11.772Z,99243
2015-09-24T00:50:30.132Z,99249
2015-09-24T00:50:48.491Z,99240
2015-09-24T00:51:06.852Z,99249
2015-09-24T00:51:25.212Z,99246
2015-09-24T00:51:43.555Z,99243
2015-09-24T00:52:01.919Z,99243
2015-09-24T00:52:20.278Z,99246
2015-09-24T00:52:38.622Z,99246
2015-09-24T00:52:56.843Z,99240
2015-09-24T00:53:14.546Z,99243
2015-09-24T00:53:32.265Z,99238
2015-09-24T00:53:50.749Z,99240
2015-09-24T00:54:08.439Z,99249
2015-09-24T00:54:26.939Z,99249
2015-09-24T00:54:45.299Z,99246
2015-09-24T00:55:03.661Z,99246
2015-09-24T00:55:22.005Z,99238
2015-09-24T00:55:40.364Z,99249
2015-09-24T00:55:58.724Z,99252
2015-09-24T00:56:17.069Z,99243
2015-09-24T00:56:35.429Z,99252
2015-09-24T00:56:53.788Z,99255
2015-09-24T00:57:12.151Z,99252
2015-09-24T00:57:30.494Z,99249
2015-09-24T00:57:48.854Z,99255
2015-09-24T00:58:07.215Z,99255
2015-09-24T00:58:25.559Z,99260
2015-09-24T00:58:43.918Z,99257
2015-09-24T00:59:02.121Z,99255
2015-09-24T00:59:20.484Z,99260
2015-09-24T00:59:38.687Z,99252
2015-09-24T00:59:57.046Z,99257
2015-09-24T01:00:15.410Z,99243
2015-09-24T01:00:33.769Z,99249
2015-09-24T01:00:52.128Z,99255
2015-09-24T01:01:10.475Z,99252
2015-09-24T01:01:28.834Z,99246
2015-09-24T01:01:47.194Z,99252
2015-09-24T01:02:05.680Z,99255
2015-09-24T01:02:24.040Z,99255
2015-09-24T01:02:42.399Z,99257
2015-09-24T01:03:00.758Z,99249
2015-09-24T01:03:19.121Z,99257
2015-09-24T01:03:37.480Z,99257
2015-09-24T01:03:55.839Z,99249
2015-09-24T01:04:14.201Z,99246
2015-09-24T01:04:31.888Z,99257
2015-09-24T01:04:50.248Z,99257
2015-09-24T01:05:08.610Z,99263
2015-09-24T01:05:26.969Z,99257
2015-09-24T01:05:45.329Z,99257
2015-09-24T01:06:03.673Z,99249
2015-09-24T01:06:21.379Z,99249
2015-09-24T01:06:39.738Z,99252
2015-09-24T01:06:58.097Z,99249
2015-09-24T01:07:16.459Z,99255
2015-09-24T01:07:34.818Z,99249
2015-09-24T01:07:53.178Z,99255
2015-09-24T01:08:11.524Z,99255
2015-09-24T01:08:29.884Z,99249
2015-09-24T01:08:48.243Z,99257
2015-09-24T01:09:06.605Z,99266
2015-09-24T01:09:24.965Z,99255
2015-09-24T01:09:43.324Z,99260
2015-09-24T01:10:01.684Z,99272
2015-09-24T01:10:20.030Z,99274
2015-09-24T01:10:38.405Z,99257
2015-09-24T01:10:56.749Z,99260
2015-09-24T01:11:15.110Z,99257
2015-09-24T01:11:32.814Z,99263
2015-09-24T01:11:51.157Z,99252
2015-09-24T01:12:09.535Z,99266
2015-09-24T01:12:27.879Z,99269
2015-09-24T01:12:46.238Z,99272
2015-09-24T01:13:04.598Z,99272
2015-09-24T01:13:22.288Z,99274
2015-09-24T01:13:40.648Z,99263
2015-09-24T01:13:59.007Z,99277
2015-09-24T01:14:17.368Z,99269
2015-09-24T01:14:35.728Z,99277
2015-09-24T01:14:54.072Z,99280
2015-09-24T01:15:12.434Z,99272
2015-09-24T01:15:30.793Z,99277
2015-09-24T01:15:49.153Z,99266
2015-09-24T01:16:07.496Z,99271
2015-09-24T01:16:25.858Z,99266
2015-09-24T01:16:44.217Z,99263
2015-09-24T01:17:02.577Z,99272
2015-09-24T01:17:20.923Z,99269
2015-09-24T01:17:39.283Z,99274
2015-09-24T01:17:57.642Z,99277
2015-09-24T01:18:16.004Z,99274
2015-09-24T01:18:34.364Z,99271
2015-09-24T01:18:52.708Z,99271
2015-09-24T01:19:11.067Z,99277
2015-09-24T01:19:29.429Z,99271
2015-09-24T01:19:47.789Z,99277
2015-09-24T01:20:06.273Z,99274
2015-09-24T01:20:24.634Z,99269
2015-09-24T01:20:42.994Z,99277
2015-09-24T01:21:01.353Z,99274
2015-09-24T01:21:19.731Z,99274
2015-09-24T01:21:38.091Z,99277
2015-09-24T01:21:56.575Z,99274
2015-09-24T01:22:14.950Z,99274
2015-09-24T01:22:33.297Z,99280
2015-09-24T01:22:51.656Z,99272
2015-09-24T01:23:10.031Z,99272
2015-09-24T01:23:28.378Z,99283
2015-09-24T01:23:46.737Z,99280
2015-09-24T01:24:04.440Z,99283
2015-09-24T01:24:22.803Z,99277
2015-09-24T01:24:41.146Z,99280
2015-09-24T01:24:59.506Z,99277
2015-09-24T01:25:17.881Z,99274
2015-09-24T01:25:36.227Z,99277
2015-09-24T01:25:54.570Z,99274
2015-09-24T01:26:12.930Z,99274
2015-09-24T01:26:31.292Z,99280
2015-09-24T01:26:49.495Z,99280
2015-09-24T01:27:07.855Z,99274
2015-09-24T01:27:26.217Z,99274
2015-09-24T01:27:44.561Z,99280
2015-09-24T01:28:02.936Z,99280
2015-09-24T01:28:21.279Z,99280
2015-09-24T01:28:39.642Z,99274
2015-09-24T01:28:57.345Z,99274
2015-09-24T01:29:15.704Z,99274
2015-09-24T01:29:34.066Z,99280
2015-09-24T01:29:52.425Z,99280
2015-09-24T01:30:10.113Z,99283
2015-09-24T01:30:28.475Z,99280
2015-09-24T01:30:46.178Z,99272
2015-09-24T01:31:04.537Z,99283
2015-09-24T01:31:22.897Z,99272
2015-09-24T01:31:41.259Z,99283
2015-09-24T01:31:59.603Z,99280
2015-09-24T01:32:18.103Z,99280
2015-09-24T01:32:36.465Z,99274
2015-09-24T01:32:54.809Z,99277
2015-09-24T01:33:13.168Z,99277
2015-09-24T01:33:31.530Z,99274
2015-09-24T01:33:49.889Z,99277
2015-09-24T01:34:07.592Z,99277
2015-09-24T01:34:25.936Z,99274
2015-09-24T01:34:44.314Z,99280
2015-09-24T01:35:02.658Z,99280
2015-09-24T01:35:21.017Z,99274
2015-09-24T01:35:39.379Z,99283
2015-09-24T01:35:57.754Z,99274
2015-09-24T01:36:16.082Z,99280
2015-09-24T01:36:34.444Z,99277
2015-09-24T01:36:52.803Z,99272
2015-09-24T01:37:11.147Z,99269
2015-09-24T01:37:29.507Z,99280
2015-09-24T01:37:47.869Z,99269
2015-09-24T01:38:06.228Z,99272
2015-09-24T01:38:24.588Z,99269
2015-09-24T01:38:42.950Z,99274
2015-09-24T01:39:01.294Z,99274
2015-09-24T01:39:19.653Z,99269
2015-09-24T01:39:38.016Z,99274
2015-09-24T01:39:56.375Z,99266
2015-09-24T01:40:14.734Z,99269
2015-09-24T01:40:33.094Z,99272
2015-09-24T01:40:51.455Z,99283
2015-09-24T01:41:09.830Z,99266
2015-09-24T01:41:28.189Z,99274
2015-09-24T01:41:46.536Z,99263
2015-09-24T01:42:04.239Z,99266
2015-09-24T01:42:22.599Z,99263
2015-09-24T01:42:40.961Z,99266
2015-09-24T01:42:59.320Z,99263
2015-09-24T01:43:17.664Z,99263
2015-09-24T01:43:36.024Z,99274
2015-09-24T01:43:54.386Z,99263
2015-09-24T01:44:12.745Z,99263
2015-09-24T01:44:31.105Z,99274
2015-09-24T01:44:49.466Z,99272
2015-09-24T01:45:07.810Z,99266
2015-09-24T01:45:26.169Z,99274
2015-09-24T01:45:44.532Z,99269
2015-09-24T01:46:02.891Z,99269
2015-09-24T01:46:21.235Z,99283
2015-09-24T01:46:39.610Z,99269
2015-09-24T01:46:57.972Z,99274
2015-09-24T01:47:16.331Z,99263
2015-09-24T01:47:34.691Z,99269
2015-09-24T01:47:52.397Z,99272
2015-09-24T01:48:10.756Z,99280
2015-09-24T01:48:29.100Z,99269
2015-09-24T01:48:47.306Z,99272
2015-09-24T01:49:05.666Z,99274
2015-09-24T01:49:24.025Z,99277
2015-09-24T01:49:42.384Z,99272
2015-09-24T01:50:00.746Z,99263
2015-09-24T01:50:19.089Z,99266
2015-09-24T01:50:37.464Z,99266
2015-09-24T01:50:55.967Z,99266
2015-09-24T01:51:14.311Z,99260
2015-09-24T01:51:32.671Z,99269
2015-09-24T01:51:51.032Z,99257
2015-09-24T01:52:09.391Z,99260
2015-09-24T01:52:27.751Z,99257
2015-09-24T01:52:46.094Z,99266
2015-09-24T01:53:04.457Z,99255
2015-09-24T01:53:22.144Z,99260
2015-09-24T01:53:40.504Z,99266
2015-09-24T01:53:58.866Z,99255
2015-09-24T01:54:17.225Z,99257
2015-09-24T01:54:35.585Z,99249
2015-09-24T01:54:53.931Z,99263
2015-09-24T01:55:12.290Z,99260
2015-09-24T01:55:30.649Z,99260
2015-09-24T01:55:49.149Z,99269
2015-09-24T01:56:07.496Z,99257
2015-09-24T01:56:25.855Z,99257
2015-09-24T01:56:44.215Z,99269
2015-09-24T01:57:02.577Z,99249
2015-09-24T01:57:20.280Z,99255
2015-09-24T01:57:38.624Z,99257
2015-09-24T01:57:56.986Z,99266
2015-09-24T01:58:15.346Z,99260
2015-09-24T01:58:33.705Z,99255
2015-09-24T01:58:52.065Z,99260
2015-09-24T01:59:10.427Z,99257
2015-09-24T01:59:28.771Z,99260
2015-09-24T01:59:47.130Z,99255
2015-09-24T02:00:05.491Z,99263
2015-09-24T02:00:23.195Z,99252
2015-09-24T02:00:41.554Z,99263
2015-09-24T02:00:59.259Z,99246
2015-09-24T02:01:17.618Z,99252
2015-09-24T02:01:35.962Z,99257
2015-09-24T02:01:53.665Z,99257
2015-09-24T02:02:12.029Z,99260
2015-09-24T02:02:30.388Z,99255
2015-09-24T02:02:48.747Z,99252
2015-09-24T02:03:07.109Z,99272
2015-09-24T02:03:25.468Z,99260
2015-09-24T02:03:43.812Z,99260
2015-09-24T02:04:02.174Z,99266
2015-09-24T02:04:20.534Z,99263
2015-09-24T02:04:38.893Z,99252
2015-09-24T02:04:57.252Z,99252
2015-09-24T02:05:15.615Z,99249
2015-09-24T02:05:33.974Z,99252
2015-09-24T02:05:52.334Z,99263
2015-09-24T02:06:10.679Z,99257
2015-09-24T02:06:29.039Z,99260
2015-09-24T02:06:47.398Z,99263
2015-09-24T02:07:05.760Z,99260
2015-09-24T02:07:24.104Z,99255
2015-09-24T02:07:42.464Z,99243
2015-09-24T02:08:00.823Z,99243
2015-09-24T02:08:19.185Z,99252
2015-09-24T02:08:37.529Z,99252
2015-09-24T02:08:55.888Z,99257
2015-09-24T02:09:14.251Z,99255
2015-09-24T02:09:32.610Z,99263
2015-09-24T02:09:50.970Z,99257
2015-09-24T02:10:09.331Z,99263
2015-09-24T02:10:27.690Z,99260
2015-09-24T02:10:46.034Z,99266
2015-09-24T02:11:04.396Z,99260
2015-09-24T02:11:22.100Z,99263
2015-09-24T02:11:40.459Z,99260
2015-09-24T02:11:58.818Z,99263
2015-09-24T02:12:17.165Z,99260
2015-09-24T02:12:35.524Z,99257
2015-09-24T02:12:53.884Z,99257
2015-09-24T02:13:12.246Z,99260
2015-09-24T02:13:30.606Z,99263
2015-09-24T02:13:48.965Z,99263
2015-09-24T02:14:06.655Z,99266
2015-09-24T02:14:25.015Z,99255
2015-09-24T02:14:43.374Z,99249
2015-09-24T02:15:01.734Z,99252
2015-09-24T02:15:20.095Z,99260
2015-09-24T02:15:38.454Z,99257
2015-09-24T02:15:56.142Z,99243
2015-09-24T02:16:14.503Z,99260
2015-09-24T02:16:32.863Z,99257
2015-09-24T02:16:51.222Z,99252
2015-09-24T02:17:09.584Z,99260
2015-09-24T02:17:27.944Z,99260
2015-09-24T02:17:46.287Z,99260
2015-09-24T02:18:03.991Z,99252
2015-09-24T02:18:22.353Z,99249
2015-09-24T02:18:40.712Z,99246
2015-09-24T02:18:59.072Z,99263
2015-09-24T02:19:17.434Z,99257
2015-09-24T02:19:35.793Z,99249
2015-09-24T02:19:54.153Z,99260
2015-09-24T02:20:12.500Z,99260
2015-09-24T02:20:30.859Z,99257
2015-09-24T02:20:49.218Z,99257
2015-09-24T02:21:07.578Z,99257
2015-09-24T02:21:25.940Z,99263
2015-09-24T02:21:44.284Z,99260
2015-09-24T02:22:02.643Z,99255
2015-09-24T02:22:21.005Z,99255
2015-09-24T02:22:39.364Z,99249
2015-09-24T02:22:57.723Z,99257
2015-09-24T02:23:16.070Z,99260
2015-09-24T02:23:34.429Z,99257
2015-09-24T02:23:52.804Z,99260
2015-09-24T02:24:11.150Z,99260
2015-09-24T02:24:29.510Z,99260
2015-09-24T02:24:47.869Z,99260
2015-09-24T02:25:06.228Z,99260
2015-09-24T02:25:24.591Z,99260
2015-09-24T02:25:42.950Z,99263
2015-09-24T02:26:01.294Z,99257
2015-09-24T02:26:19.656Z,99249
2015-09-24T02:26:38.016Z,99263
2015-09-24T02:26:55.719Z,99257
2015-09-24T02:27:14.070Z,99243
2015-09-24T02:27:32.430Z,99249
2015-09-24T02:27:50.789Z,99249
2015-09-24T02:28:09.148Z,99255
2015-09-24T02:28:27.495Z,99257
2015-09-24T02:28:45.855Z,99246
2015-09-24T02:29:04.214Z,99255
2015-09-24T02:29:22.576Z,99249
2015-09-24T02:29:40.936Z,99257
2015-09-24T02:29:59.295Z,99249
2015-09-24T02:30:17.640Z,99252
2015-09-24T02:30:35.999Z,99243
2015-09-24T02:30:54.359Z,99249
2015-09-24T02:31:12.718Z,99246
2015-09-24T02:31:30.924Z,99246
2015-09-24T02:31:48.627Z,99255
2015-09-24T02:32:06.987Z,99249
2015-09-24T02:32:25.349Z,99252
2015-09-24T02:32:43.708Z,99255
2015-09-24T02:33:02.052Z,99252
2015-09-24T02:33:20.414Z,99255
2015-09-24T02:33:38.774Z,99246
2015-09-24T02:33:57.118Z,99246
2015-09-24T02:34:15.477Z,99249
2015-09-24T02:34:33.839Z,99246
2015-09-24T02:34:52.042Z,99246
2015-09-24T02:35:10.402Z,99246
2015-09-24T02:35:28.763Z,99257
2015-09-24T02:35:47.123Z,99243
2015-09-24T02:36:05.482Z,99246
2015-09-24T02:36:23.188Z,99252
2015-09-24T02:36:41.532Z,99260
2015-09-24T02:36:59.891Z,99249
2015-09-24T02:37:18.251Z,99243
2015-09-24T02:37:36.613Z,99252
2015-09-24T02:37:54.972Z,99243
2015-09-24T02:38:13.332Z,99252
2015-09-24T02:38:31.694Z,99257
2015-09-24T02:38:50.053Z,99255
2015-09-24T02:39:08.397Z,99246
2015-09-24T02:39:26.759Z,99263
2015-09-24T02:39:45.118Z,99246
2015-09-24T02:40:03.477Z,99243
2015-09-24T02:40:21.837Z,99252
2015-09-24T02:40:40.199Z,99246
2015-09-24T02:40:57.887Z,99257
2015-09-24T02:41:16.246Z,99252
2015-09-24T02:41:34.608Z,99252
2015-09-24T02:41:52.968Z,99249
2015-09-24T02:42:11.311Z,99252
2015-09-24T02:42:29.674Z,99252
2015-09-24T02:42:48.033Z,99257
2015-09-24T02:43:06.393Z,99257
2015-09-24T02:43:24.757Z,99257
2015-09-24T02:43:43.104Z,99255
2015-09-24T02:44:01.463Z,99266
2015-09-24T02:44:19.822Z,99255
2015-09-24T02:44:38.184Z,99252
2015-09-24T02:44:56.543Z,99257
2015-09-24T02:45:14.902Z,99249
2015-09-24T02:45:33.249Z,99255
2015-09-24T02:45:51.609Z,99260
2015-09-24T02:46:09.968Z,99257
2015-09-24T02:46:28.329Z,99260
2015-09-24T02:46:46.689Z,99263
2015-09-24T02:47:05.048Z,99252
2015-09-24T02:47:23.392Z,99257
2015-09-24T02:47:41.754Z,99257
2015-09-24T02:48:00.114Z,99257
2015-09-24T02:48:18.473Z,99257
2015-09-24T02:48:36.834Z,99255
2015-09-24T02:48:55.194Z,99257
2015-09-24T02:49:13.553Z,99260
2015-09-24T02:49:31.916Z,99260
2015-09-24T02:49:50.276Z,99263
2015-09-24T02:50:08.635Z,99266
2015-09-24T02:50:26.979Z,99263
2015-09-24T02:50:45.340Z,99260
2015-09-24T02:51:03.700Z,99257
2015-09-24T02:51:22.059Z,99266
2015-09-24T02:51:40.421Z,99266
2015-09-24T02:51:58.781Z,99266
2015-09-24T02:52:17.125Z,99274
2015-09-24T02:52:35.486Z,99266
2015-09-24T02:52:53.986Z,99272
2015-09-24T02:53:12.330Z,99260
2015-09-24T02:53:30.689Z,99269
2015-09-24T02:53:48.396Z,99266
2015-09-24T02:54:06.224Z,99269
2015-09-24T02:54:24.427Z,99260
2015-09-24T02:54:42.789Z,99266
2015-09-24T02:55:01.148Z,99263
2015-09-24T02:55:19.508Z,99266
2015-09-24T02:55:37.870Z,99266
2015-09-24T02:55:56.229Z,99266
2015-09-24T02:56:14.589Z,99269
2015-09-24T02:56:32.948Z,99266
2015-09-24T02:56:51.309Z,99266
2015-09-24T02:57:09.669Z,99269
2015-09-24T02:57:28.013Z,99257
2015-09-24T02:57:46.376Z,99266
2015-09-24T02:58:04.735Z,99266
2015-09-24T02:58:23.095Z,99263
2015-09-24T02:58:41.440Z,99263
2015-09-24T02:58:59.284Z,99263
2015-09-24T02:59:17.644Z,99269
2015-09-24T02:59:36.019Z,99280
2015-09-24T02:59:54.350Z,99266
2015-09-24T03:00:12.709Z,99266
2015-09-24T03:00:31.068Z,99263
2015-09-24T03:00:49.430Z,99272
2015-09-24T03:01:07.117Z,99263
2015-09-24T03:01:25.492Z,99263
2015-09-24T03:01:43.839Z,99263
2015-09-24T03:02:02.198Z,99269
2015-09-24T03:02:20.558Z,99269
2015-09-24T03:02:38.920Z,99266
2015-09-24T03:02:57.280Z,99266
2015-09-24T03:03:14.983Z,99266
2015-09-24T03:03:33.326Z,99274
2015-09-24T03:03:51.688Z,99277
2015-09-24T03:04:10.047Z,99266
2015-09-24T03:04:28.407Z,99269
2015-09-24T03:04:46.769Z,99269
2015-09-24T03:05:05.128Z,99266
2015-09-24T03:05:23.472Z,99269
2015-09-24T03:05:41.834Z,99266
2015-09-24T03:06:00.194Z,99266
2015-09-24T03:06:18.553Z,99272
2015-09-24T03:06:36.897Z,99269
2015-09-24T03:06:55.259Z,99257
2015-09-24T03:07:12.962Z,99269
2015-09-24T03:07:31.322Z,99274
2015-09-24T03:07:49.683Z,99266
2015-09-24T03:08:08.043Z,99272
2015-09-24T03:08:26.402Z,99266
2015-09-24T03:08:44.764Z,99269
2015-09-24T03:09:03.108Z,99272
2015-09-24T03:09:20.811Z,99263
2015-09-24T03:09:39.186Z,99263
2015-09-24T03:09:57.548Z,99269
2015-09-24T03:10:15.891Z,99269
2015-09-24T03:10:34.251Z,99269
2015-09-24T03:10:52.739Z,99269
2015-09-24T03:11:11.098Z,99269
2015-09-24T03:11:29.458Z,99260
2015-09-24T03:11:47.819Z,99280
2015-09-24T03:12:06.179Z,99269
2015-09-24T03:12:24.522Z,99263
2015-09-24T03:12:42.882Z,99263
2015-09-24T03:13:00.588Z,99272
2015-09-24T03:13:18.947Z,99266
2015-09-24T03:13:37.307Z,99266
2015-09-24T03:13:55.669Z,99266
2015-09-24T03:14:14.013Z,99266
2015-09-24T03:14:32.372Z,99263
2015-09-24T03:14:50.577Z,99266
2015-09-24T03:15:08.937Z,99280
2015-09-24T03:15:27.296Z,99269
2015-09-24T03:15:45.655Z,99260
2015-09-24T03:16:04.018Z,99269
2015-09-24T03:16:22.361Z,99257
2015-09-24T03:16:40.721Z,99274
2015-09-24T03:16:59.083Z,99269
2015-09-24T03:17:17.443Z,99266
2015-09-24T03:17:35.786Z,99266
2015-09-24T03:17:54.163Z,99266
2015-09-24T03:18:12.523Z,99269
2015-09-24T03:18:30.851Z,99266
2015-09-24T03:18:49.210Z,99266
2015-09-24T03:19:07.573Z,99272
2015-09-24T03:19:25.932Z,99266
2015-09-24T03:19:44.291Z,99269
2015-09-24T03:20:02.638Z,99274
2015-09-24T03:20:20.997Z,99263
2015-09-24T03:20:39.357Z,99266
2015-09-24T03:20:57.719Z,99263
2015-09-24T03:21:16.063Z,99266
2015-09-24T03:21:34.422Z,99269
2015-09-24T03:21:52.782Z,99266
2015-09-24T03:22:11.269Z,99269
2015-09-24T03:22:29.628Z,99269
2015-09-24T03:22:47.988Z,99266
2015-09-24T03:23:06.350Z,99266
2015-09-24T03:23:24.725Z,99272
2015-09-24T03:23:43.085Z,99266
2015-09-24T03:24:00.774Z,99272
2015-09-24T03:24:19.133Z,99283
2015-09-24T03:24:37.493Z,99266
2015-09-24T03:24:55.852Z,99277
2015-09-24T03:25:14.215Z,99274
2015-09-24T03:25:32.574Z,99277
2015-09-24T03:25:50.933Z,99274
2015-09-24T03:26:09.421Z,99274
2015-09-24T03:26:27.764Z,99272
2015-09-24T03:26:46.124Z,99277
2015-09-24T03:27:04.485Z,99277
2015-09-24T03:27:22.845Z,99274
2015-09-24T03:27:41.204Z,99277
2015-09-24T03:27:59.566Z,99277
2015-09-24T03:28:17.910Z,99274
2015-09-24T03:28:36.269Z,99272
2015-09-24T03:28:54.629Z,99280
2015-09-24T03:29:12.991Z,99274
2015-09-24T03:29:31.351Z,99269
2015-09-24T03:29:49.694Z,99274
2015-09-24T03:30:08.057Z,99283
2015-09-24T03:30:26.416Z,99274
2015-09-24T03:30:44.775Z,99277
2015-09-24T03:31:03.137Z,99283
2015-09-24T03:31:21.340Z,99289
2015-09-24T03:31:39.699Z,99272
2015-09-24T03:31:58.043Z,99283
2015-09-24T03:32:16.405Z,99277
2015-09-24T03:32:34.765Z,99274
2015-09-24T03:32:53.109Z,99274
2015-09-24T03:33:11.470Z,99293
2015-09-24T03:33:29.829Z,99283
2015-09-24T03:33:48.189Z,99280
2015-09-24T03:34:06.551Z,99277
2015-09-24T03:34:24.895Z,99277
2015-09-24T03:34:43.254Z,99272
2015-09-24T03:35:01.614Z,99289
2015-09-24T03:35:19.976Z,99289
2015-09-24T03:35:38.320Z,99280
2015-09-24T03:35:56.679Z,99283
2015-09-24T03:36:15.040Z,99274
2015-09-24T03:36:33.400Z,99283
2015-09-24T03:36:51.103Z,99286
2015-09-24T03:37:09.451Z,99277
2015-09-24T03:37:27.810Z,99283
2015-09-24T03:37:46.169Z,99290
2015-09-24T03:38:04.529Z,99272
2015-09-24T03:38:22.890Z,99296
2015-09-24T03:38:41.250Z,99290
2015-09-24T03:38:59.593Z,99286
2015-09-24T03:39:17.315Z,99286
2015-09-24T03:39:35.674Z,99289
2015-09-24T03:39:54.018Z,99290
2015-09-24T03:40:12.381Z,99280
2015-09-24T03:40:30.740Z,99280
2015-09-24T03:40:49.099Z,99289
2015-09-24T03:41:07.443Z,99289
2015-09-24T03:41:25.164Z,99289
2015-09-24T03:41:43.508Z,99277
2015-09-24T03:42:01.211Z,99266
2015-09-24T03:42:19.573Z,99280
2015-09-24T03:42:37.932Z,99283
2015-09-24T03:42:56.292Z,99277
2015-09-24T03:43:14.639Z,99283
2015-09-24T03:43:32.998Z,99283
2015-09-24T03:43:51.357Z,99286
2015-09-24T03:44:09.717Z,99280
2015-09-24T03:44:28.079Z,99283
2015-09-24T03:44:46.423Z,99286
2015-09-24T03:45:04.782Z,99289
2015-09-24T03:45:23.144Z,99299
2015-09-24T03:45:41.503Z,99293
2015-09-24T03:45:59.862Z,99290
2015-09-24T03:46:18.209Z,99286
2015-09-24T03:46:36.568Z,99293
2015-09-24T03:46:54.928Z,99286
2015-09-24T03:47:13.272Z,99283
2015-09-24T03:47:31.634Z,99289
2015-09-24T03:47:49.993Z,99289
2015-09-24T03:48:08.353Z,99290
2015-09-24T03:48:26.714Z,99283
2015-09-24T03:48:45.073Z,99293
2015-09-24T03:49:03.417Z,99290
2015-09-24T03:49:21.780Z,99283
2015-09-24T03:49:40.264Z,99286
2015-09-24T03:49:58.623Z,99296
2015-09-24T03:50:16.983Z,99290
2015-09-24T03:50:35.345Z,99289
2015-09-24T03:50:53.704Z,99293
2015-09-24T03:51:12.064Z,99290
2015-09-24T03:51:30.426Z,99293
2015-09-24T03:51:48.786Z,99280
2015-09-24T03:52:07.145Z,99293
2015-09-24T03:52:25.506Z,99305
2015-09-24T03:52:43.866Z,99299
2015-09-24T03:53:02.209Z,99293
2015-09-24T03:53:20.569Z,99286
2015-09-24T03:53:38.931Z,99296
2015-09-24T03:53:56.634Z,99290
2015-09-24T03:54:14.994Z,99286
2015-09-24T03:54:33.356Z,99296
2015-09-24T03:54:51.715Z,99290
2015-09-24T03:55:09.919Z,99289
2015-09-24T03:55:28.280Z,99283
2015-09-24T03:55:46.624Z,99293